RJOP(METAR)
04/28 17:00
METAR RJOP 280800Z 14011KT 110V170 9999 FEW030 19/09 Q1006 RMK
1CU030 A2972=
戻る
トップページへ戻る
IMOC Co,.Ltd.